sensor_id;sensor_type;location;lat;lon;timestamp;P1;durP1;ratioP1;P2;durP2;ratioP2
70426;SDS011;57872;55.432;37.248;2024-01-11T00:00:50;12.83;;;5.73;;
70426;SDS011;57872;55.432;37.248;2024-01-11T00:06:02;9.67;;;3.87;;
70426;SDS011;57872;55.432;37.248;2024-01-11T00:11:04;9.33;;;4.10;;
70426;SDS011;57872;55.432;37.248;2024-01-11T00:16:06;8.30;;;3.63;;
70426;SDS011;57872;55.432;37.248;2024-01-11T00:21:07;8.80;;;4.10;;
70426;SDS011;57872;55.432;37.248;2024-01-11T00:26:11;8.33;;;3.80;;
70426;SDS011;57872;55.432;37.248;2024-01-11T00:31:16;10.73;;;3.83;;
70426;SDS011;57872;55.432;37.248;2024-01-11T00:36:21;9.13;;;3.90;;
70426;SDS011;57872;55.432;37.248;2024-01-11T00:41:22;10.33;;;3.67;;
70426;SDS011;57872;55.432;37.248;2024-01-11T00:46:24;9.73;;;3.63;;
70426;SDS011;57872;55.432;37.248;2024-01-11T00:51:25;7.70;;;3.53;;
70426;SDS011;57872;55.432;37.248;2024-01-11T00:56:36;7.77;;;3.60;;
70426;SDS011;57872;55.432;37.248;2024-01-11T01:14:30;9.33;;;3.60;;
70426;SDS011;57872;55.432;37.248;2024-01-11T01:25:48;9.60;;;3.00;;
70426;SDS011;57872;55.432;37.248;2024-01-11T01:31:43;8.07;;;3.00;;
70426;SDS011;57872;55.432;37.248;2024-01-11T01:37:09;8.23;;;3.47;;
70426;SDS011;57872;55.432;37.248;2024-01-11T01:49:43;6.40;;;2.43;;
70426;SDS011;57872;55.432;37.248;2024-01-11T02:01:08;5.77;;;2.13;;
70426;SDS011;57872;55.432;37.248;2024-01-11T02:06:24;6.43;;;2.57;;
70426;SDS011;57872;55.432;37.248;2024-01-11T02:11:26;7.00;;;2.37;;
70426;SDS011;57872;55.432;37.248;2024-01-11T02:16:27;6.83;;;2.40;;
70426;SDS011;57872;55.432;37.248;2024-01-11T02:21:28;6.00;;;2.40;;
70426;SDS011;57872;55.432;37.248;2024-01-11T02:26:30;5.20;;;1.90;;
70426;SDS011;57872;55.432;37.248;2024-01-11T02:31:36;6.87;;;2.20;;
70426;SDS011;57872;55.432;37.248;2024-01-11T02:36:37;6.53;;;2.17;;
70426;SDS011;57872;55.432;37.248;2024-01-11T02:41:38;4.70;;;1.60;;
70426;SDS011;57872;55.432;37.248;2024-01-11T02:46:39;4.67;;;1.60;;
70426;SDS011;57872;55.432;37.248;2024-01-11T02:51:40;4.00;;;1.60;;
70426;SDS011;57872;55.432;37.248;2024-01-11T02:56:51;3.57;;;1.33;;
70426;SDS011;57872;55.432;37.248;2024-01-11T03:01:52;3.50;;;1.30;;
70426;SDS011;57872;55.432;37.248;2024-01-11T03:06:54;2.83;;;1.10;;
70426;SDS011;57872;55.432;37.248;2024-01-11T03:11:58;3.60;;;1.20;;
70426;SDS011;57872;55.432;37.248;2024-01-11T03:16:59;2.63;;;1.03;;
70426;SDS011;57872;55.432;37.248;2024-01-11T03:22:11;2.57;;;1.10;;
70426;SDS011;57872;55.432;37.248;2024-01-11T03:27:15;4.00;;;1.40;;
70426;SDS011;57872;55.432;37.248;2024-01-11T03:32:16;3.30;;;1.20;;
70426;SDS011;57872;55.432;37.248;2024-01-11T03:37:24;2.93;;;1.17;;
70426;SDS011;57872;55.432;37.248;2024-01-11T03:42:50;3.60;;;1.30;;
70426;SDS011;57872;55.432;37.248;2024-01-11T03:48:05;3.40;;;1.30;;
70426;SDS011;57872;55.432;37.248;2024-01-11T03:53:09;3.00;;;1.10;;
70426;SDS011;57872;55.432;37.248;2024-01-11T03:58:10;3.30;;;1.10;;
70426;SDS011;57872;55.432;37.248;2024-01-11T04:03:11;3.37;;;1.30;;
70426;SDS011;57872;55.432;37.248;2024-01-11T04:13:19;3.47;;;1.10;;
70426;SDS011;57872;55.432;37.248;2024-01-11T04:18:20;2.63;;;1.10;;
70426;SDS011;57872;55.432;37.248;2024-01-11T04:23:27;2.83;;;1.17;;
70426;SDS011;57872;55.432;37.248;2024-01-11T04:28:29;2.53;;;1.10;;
70426;SDS011;57872;55.432;37.248;2024-01-11T04:33:30;1.37;;;0.93;;
70426;SDS011;57872;55.432;37.248;2024-01-11T04:38:32;2.73;;;1.10;;
70426;SDS011;57872;55.432;37.248;2024-01-11T04:48:51;2.13;;;1.03;;
70426;SDS011;57872;55.432;37.248;2024-01-11T04:53:54;2.13;;;1.00;;
70426;SDS011;57872;55.432;37.248;2024-01-11T04:59:01;1.80;;;0.90;;
70426;SDS011;57872;55.432;37.248;2024-01-11T05:04:14;2.60;;;1.10;;
70426;SDS011;57872;55.432;37.248;2024-01-11T05:09:15;1.90;;;1.00;;
70426;SDS011;57872;55.432;37.248;2024-01-11T05:14:16;2.17;;;1.10;;
70426;SDS011;57872;55.432;37.248;2024-01-11T05:19:57;2.73;;;1.20;;
70426;SDS011;57872;55.432;37.248;2024-01-11T05:25:05;2.03;;;1.10;;
70426;SDS011;57872;55.432;37.248;2024-01-11T05:30:12;3.05;;;1.27;;
70426;SDS011;57872;55.432;37.248;2024-01-11T05:35:16;1.70;;;1.00;;
70426;SDS011;57872;55.432;37.248;2024-01-11T05:52:56;0.80;;;0.80;;
70426;SDS011;57872;55.432;37.248;2024-01-11T05:58:56;1.77;;;1.00;;
70426;SDS011;57872;55.432;37.248;2024-01-11T06:16:08;1.20;;;0.93;;
70426;SDS011;57872;55.432;37.248;2024-01-11T06:21:10;1.63;;;1.00;;
70426;SDS011;57872;55.432;37.248;2024-01-11T06:26:18;1.53;;;0.90;;
70426;SDS011;57872;55.432;37.248;2024-01-11T06:31:28;1.95;;;0.90;;
70426;SDS011;57872;55.432;37.248;2024-01-11T06:36:47;1.73;;;0.90;;
70426;SDS011;57872;55.432;37.248;2024-01-11T06:42:08;2.17;;;1.00;;
70426;SDS011;57872;55.432;37.248;2024-01-11T06:47:10;2.13;;;1.07;;
70426;SDS011;57872;55.432;37.248;2024-01-11T06:52:12;3.20;;;1.03;;
70426;SDS011;57872;55.432;37.248;2024-01-11T07:02:21;1.67;;;1.00;;
70426;SDS011;57872;55.432;37.248;2024-01-11T07:07:22;2.13;;;1.00;;
70426;SDS011;57872;55.432;37.248;2024-01-11T07:12:23;3.37;;;1.20;;
70426;SDS011;57872;55.432;37.248;2024-01-11T07:17:28;2.33;;;1.10;;
70426;SDS011;57872;55.432;37.248;2024-01-11T07:22:34;3.63;;;1.20;;
70426;SDS011;57872;55.432;37.248;2024-01-11T07:34:07;1.43;;;0.80;;
70426;SDS011;57872;55.432;37.248;2024-01-11T07:40:07;2.03;;;1.00;;
70426;SDS011;57872;55.432;37.248;2024-01-11T07:45:11;3.07;;;1.10;;
70426;SDS011;57872;55.432;37.248;2024-01-11T07:50:12;1.97;;;0.90;;
70426;SDS011;57872;55.432;37.248;2024-01-11T07:55:14;1.73;;;1.00;;
70426;SDS011;57872;55.432;37.248;2024-01-11T08:00:15;2.17;;;1.03;;
70426;SDS011;57872;55.432;37.248;2024-01-11T08:05:27;1.53;;;0.90;;
70426;SDS011;57872;55.432;37.248;2024-01-11T08:10:28;2.07;;;1.00;;
70426;SDS011;57872;55.432;37.248;2024-01-11T08:15:31;2.30;;;1.00;;
70426;SDS011;57872;55.432;37.248;2024-01-11T08:20:32;2.53;;;1.17;;
70426;SDS011;57872;55.432;37.248;2024-01-11T08:25:35;1.27;;;0.90;;
70426;SDS011;57872;55.432;37.248;2024-01-11T08:30:36;1.53;;;0.93;;
70426;SDS011;57872;55.432;37.248;2024-01-11T08:35:40;2.10;;;1.03;;
70426;SDS011;57872;55.432;37.248;2024-01-11T08:40:52;1.57;;;1.00;;
70426;SDS011;57872;55.432;37.248;2024-01-11T08:45:53;1.93;;;1.00;;
70426;SDS011;57872;55.432;37.248;2024-01-11T08:50:55;2.20;;;1.00;;
70426;SDS011;57872;55.432;37.248;2024-01-11T08:55:57;2.30;;;1.10;;
70426;SDS011;57872;55.432;37.248;2024-01-11T09:00:58;1.00;;;0.80;;
70426;SDS011;57872;55.432;37.248;2024-01-11T09:05:59;2.20;;;0.93;;
70426;SDS011;57872;55.432;37.248;2024-01-11T09:11:01;1.60;;;1.00;;
70426;SDS011;57872;55.432;37.248;2024-01-11T09:16:02;2.13;;;1.03;;
70426;SDS011;57872;55.432;37.248;2024-01-11T09:21:04;3.33;;;1.00;;
70426;SDS011;57872;55.432;37.248;2024-01-11T09:26:05;1.37;;;0.90;;
70426;SDS011;57872;55.432;37.248;2024-01-11T09:31:06;2.03;;;1.00;;
70426;SDS011;57872;55.432;37.248;2024-01-11T09:36:12;2.30;;;1.20;;
70426;SDS011;57872;55.432;37.248;2024-01-11T09:41:16;2.27;;;1.10;;
70426;SDS011;57872;55.432;37.248;2024-01-11T09:46:24;4.73;;;1.10;;
70426;SDS011;57872;55.432;37.248;2024-01-11T09:51:26;3.17;;;1.00;;
70426;SDS011;57872;55.432;37.248;2024-01-11T09:56:31;1.33;;;0.90;;
70426;SDS011;57872;55.432;37.248;2024-01-11T10:01:33;7.07;;;3.40;;
70426;SDS011;57872;55.432;37.248;2024-01-11T10:06:40;3.70;;;1.37;;
70426;SDS011;57872;55.432;37.248;2024-01-11T10:11:41;4.85;;;1.25;;
70426;SDS011;57872;55.432;37.248;2024-01-11T10:16:43;3.50;;;1.30;;
70426;SDS011;57872;55.432;37.248;2024-01-11T10:27:25;4.27;;;1.57;;
70426;SDS011;57872;55.432;37.248;2024-01-11T10:33:05;4.10;;;1.60;;
70426;SDS011;57872;55.432;37.248;2024-01-11T10:38:17;3.47;;;1.58;;
70426;SDS011;57872;55.432;37.248;2024-01-11T10:43:27;3.97;;;1.40;;
70426;SDS011;57872;55.432;37.248;2024-01-11T10:53:48;3.83;;;1.60;;
70426;SDS011;57872;55.432;37.248;2024-01-11T10:58:51;4.78;;;1.65;;
70426;SDS011;57872;55.432;37.248;2024-01-11T11:03:54;3.83;;;1.60;;
70426;SDS011;57872;55.432;37.248;2024-01-11T11:08:57;3.67;;;1.60;;
70426;SDS011;57872;55.432;37.248;2024-01-11T11:13:58;4.80;;;1.30;;
70426;SDS011;57872;55.432;37.248;2024-01-11T11:19:02;3.85;;;1.35;;
70426;SDS011;57872;55.432;37.248;2024-01-11T11:24:06;3.50;;;1.40;;
70426;SDS011;57872;55.432;37.248;2024-01-11T11:29:47;4.27;;;1.60;;
70426;SDS011;57872;55.432;37.248;2024-01-11T11:35:08;4.17;;;1.60;;
70426;SDS011;57872;55.432;37.248;2024-01-11T11:40:39;5.13;;;1.80;;
70426;SDS011;57872;55.432;37.248;2024-01-11T11:45:44;2.73;;;1.30;;
70426;SDS011;57872;55.432;37.248;2024-01-11T11:50:47;4.13;;;1.73;;
70426;SDS011;57872;55.432;37.248;2024-01-11T11:55:57;4.67;;;1.53;;
70426;SDS011;57872;55.432;37.248;2024-01-11T12:07:15;3.60;;;1.47;;
70426;SDS011;57872;55.432;37.248;2024-01-11T12:12:18;4.07;;;1.97;;
70426;SDS011;57872;55.432;37.248;2024-01-11T12:35:51;4.27;;;2.03;;
70426;SDS011;57872;55.432;37.248;2024-01-11T12:40:52;6.17;;;2.47;;
70426;SDS011;57872;55.432;37.248;2024-01-11T12:45:58;4.60;;;1.70;;
70426;SDS011;57872;55.432;37.248;2024-01-11T12:51:16;4.50;;;1.93;;
70426;SDS011;57872;55.432;37.248;2024-01-11T12:56:20;5.67;;;2.03;;
70426;SDS011;57872;55.432;37.248;2024-01-11T13:01:22;4.13;;;1.63;;
70426;SDS011;57872;55.432;37.248;2024-01-11T13:06:24;3.43;;;1.47;;
70426;SDS011;57872;55.432;37.248;2024-01-11T13:11:28;6.90;;;2.50;;
70426;SDS011;57872;55.432;37.248;2024-01-11T13:16:29;4.83;;;2.13;;
70426;SDS011;57872;55.432;37.248;2024-01-11T13:21:31;3.73;;;2.17;;
70426;SDS011;57872;55.432;37.248;2024-01-11T13:26:32;4.43;;;1.97;;
70426;SDS011;57872;55.432;37.248;2024-01-11T13:31:33;4.93;;;1.90;;
70426;SDS011;57872;55.432;37.248;2024-01-11T13:36:34;5.43;;;2.33;;
70426;SDS011;57872;55.432;37.248;2024-01-11T13:41:36;6.30;;;2.63;;
70426;SDS011;57872;55.432;37.248;2024-01-11T13:46:37;6.87;;;2.20;;
70426;SDS011;57872;55.432;37.248;2024-01-11T13:51:38;6.37;;;2.73;;
70426;SDS011;57872;55.432;37.248;2024-01-11T13:56:39;6.87;;;2.60;;
70426;SDS011;57872;55.432;37.248;2024-01-11T14:01:40;5.97;;;2.10;;
70426;SDS011;57872;55.432;37.248;2024-01-11T14:06:42;6.47;;;2.30;;
70426;SDS011;57872;55.432;37.248;2024-01-11T14:11:46;5.63;;;2.27;;
70426;SDS011;57872;55.432;37.248;2024-01-11T14:16:49;5.03;;;1.87;;
70426;SDS011;57872;55.432;37.248;2024-01-11T14:21:51;5.43;;;2.50;;
70426;SDS011;57872;55.432;37.248;2024-01-11T14:26:52;8.93;;;2.87;;
70426;SDS011;57872;55.432;37.248;2024-01-11T14:31:54;6.27;;;2.77;;
70426;SDS011;57872;55.432;37.248;2024-01-11T14:36:58;6.73;;;2.97;;
70426;SDS011;57872;55.432;37.248;2024-01-11T14:41:59;6.17;;;1.90;;
70426;SDS011;57872;55.432;37.248;2024-01-11T14:47:01;3.37;;;1.80;;
70426;SDS011;57872;55.432;37.248;2024-01-11T14:52:02;4.87;;;2.23;;
70426;SDS011;57872;55.432;37.248;2024-01-11T14:57:03;4.70;;;2.03;;
70426;SDS011;57872;55.432;37.248;2024-01-11T15:02:07;4.10;;;1.60;;
70426;SDS011;57872;55.432;37.248;2024-01-11T15:07:10;5.57;;;2.00;;
70426;SDS011;57872;55.432;37.248;2024-01-11T15:12:11;5.00;;;2.30;;
70426;SDS011;57872;55.432;37.248;2024-01-11T15:17:12;4.53;;;2.43;;
70426;SDS011;57872;55.432;37.248;2024-01-11T15:22:13;5.33;;;1.80;;
70426;SDS011;57872;55.432;37.248;2024-01-11T15:27:16;5.63;;;2.27;;
70426;SDS011;57872;55.432;37.248;2024-01-11T15:32:17;5.17;;;2.80;;
70426;SDS011;57872;55.432;37.248;2024-01-11T15:37:19;5.93;;;2.30;;
70426;SDS011;57872;55.432;37.248;2024-01-11T15:42:20;9.77;;;3.10;;
70426;SDS011;57872;55.432;37.248;2024-01-11T15:47:24;4.35;;;1.85;;
70426;SDS011;57872;55.432;37.248;2024-01-11T15:52:25;4.57;;;2.00;;
70426;SDS011;57872;55.432;37.248;2024-01-11T15:57:26;3.40;;;1.47;;
70426;SDS011;57872;55.432;37.248;2024-01-11T16:02:28;3.63;;;1.77;;
70426;SDS011;57872;55.432;37.248;2024-01-11T16:07:29;6.63;;;2.77;;
70426;SDS011;57872;55.432;37.248;2024-01-11T16:12:30;5.27;;;2.30;;
70426;SDS011;57872;55.432;37.248;2024-01-11T16:17:31;4.53;;;2.27;;
70426;SDS011;57872;55.432;37.248;2024-01-11T16:22:33;4.93;;;1.77;;
70426;SDS011;57872;55.432;37.248;2024-01-11T16:27:37;4.57;;;2.50;;
70426;SDS011;57872;55.432;37.248;2024-01-11T16:32:42;14.03;;;2.00;;
70426;SDS011;57872;55.432;37.248;2024-01-11T16:37:44;4.50;;;1.80;;
70426;SDS011;57872;55.432;37.248;2024-01-11T16:42:46;5.57;;;2.00;;
70426;SDS011;57872;55.432;37.248;2024-01-11T16:47:51;6.83;;;1.83;;
70426;SDS011;57872;55.432;37.248;2024-01-11T16:52:53;4.40;;;2.00;;
70426;SDS011;57872;55.432;37.248;2024-01-11T17:03:13;5.93;;;2.20;;
70426;SDS011;57872;55.432;37.248;2024-01-11T17:08:20;8.33;;;2.33;;
70426;SDS011;57872;55.432;37.248;2024-01-11T17:13:22;8.10;;;2.33;;
70426;SDS011;57872;55.432;37.248;2024-01-11T17:18:23;4.30;;;1.80;;
70426;SDS011;57872;55.432;37.248;2024-01-11T17:23:25;6.17;;;2.43;;
70426;SDS011;57872;55.432;37.248;2024-01-11T17:28:27;6.70;;;2.10;;
70426;SDS011;57872;55.432;37.248;2024-01-11T17:33:32;4.80;;;2.37;;
70426;SDS011;57872;55.432;37.248;2024-01-11T17:38:38;7.27;;;2.37;;
70426;SDS011;57872;55.432;37.248;2024-01-11T17:49:47;3.47;;;1.47;;
70426;SDS011;57872;55.432;37.248;2024-01-11T17:54:48;3.60;;;1.73;;
70426;SDS011;57872;55.432;37.248;2024-01-11T17:59:49;3.37;;;1.60;;
70426;SDS011;57872;55.432;37.248;2024-01-11T18:04:51;3.40;;;1.83;;
70426;SDS011;57872;55.432;37.248;2024-01-11T18:09:52;4.93;;;2.10;;
70426;SDS011;57872;55.432;37.248;2024-01-11T18:14:54;4.27;;;1.70;;
70426;SDS011;57872;55.432;37.248;2024-01-11T18:19:58;4.05;;;1.70;;
70426;SDS011;57872;55.432;37.248;2024-01-11T18:24:59;2.77;;;1.47;;
70426;SDS011;57872;55.432;37.248;2024-01-11T18:30:00;4.23;;;1.43;;
70426;SDS011;57872;55.432;37.248;2024-01-11T18:35:02;5.80;;;2.13;;
70426;SDS011;57872;55.432;37.248;2024-01-11T18:40:15;3.77;;;1.57;;
70426;SDS011;57872;55.432;37.248;2024-01-11T18:51:03;3.55;;;1.60;;
70426;SDS011;57872;55.432;37.248;2024-01-11T19:01:13;3.67;;;1.40;;
70426;SDS011;57872;55.432;37.248;2024-01-11T19:06:14;4.20;;;1.57;;
70426;SDS011;57872;55.432;37.248;2024-01-11T19:11:20;5.40;;;1.70;;
70426;SDS011;57872;55.432;37.248;2024-01-11T19:16:21;3.77;;;1.50;;
70426;SDS011;57872;55.432;37.248;2024-01-11T19:21:22;4.67;;;2.07;;
70426;SDS011;57872;55.432;37.248;2024-01-11T19:26:24;4.03;;;2.00;;
70426;SDS011;57872;55.432;37.248;2024-01-11T19:31:25;4.27;;;1.90;;
70426;SDS011;57872;55.432;37.248;2024-01-11T19:36:26;4.00;;;1.40;;
70426;SDS011;57872;55.432;37.248;2024-01-11T19:41:43;4.67;;;1.83;;
70426;SDS011;57872;55.432;37.248;2024-01-11T19:46:47;3.20;;;1.50;;
70426;SDS011;57872;55.432;37.248;2024-01-11T19:51:52;5.03;;;1.93;;
70426;SDS011;57872;55.432;37.248;2024-01-11T19:56:55;5.53;;;2.15;;
70426;SDS011;57872;55.432;37.248;2024-01-11T20:01:57;3.53;;;1.57;;
70426;SDS011;57872;55.432;37.248;2024-01-11T20:06:59;5.10;;;1.83;;
70426;SDS011;57872;55.432;37.248;2024-01-11T20:12:00;3.87;;;1.83;;
70426;SDS011;57872;55.432;37.248;2024-01-11T20:17:02;3.63;;;1.77;;
70426;SDS011;57872;55.432;37.248;2024-01-11T20:22:03;9.00;;;1.93;;
70426;SDS011;57872;55.432;37.248;2024-01-11T20:27:04;6.87;;;2.47;;
70426;SDS011;57872;55.432;37.248;2024-01-11T20:32:06;5.87;;;1.80;;
70426;SDS011;57872;55.432;37.248;2024-01-11T20:37:11;3.73;;;2.10;;
70426;SDS011;57872;55.432;37.248;2024-01-11T20:42:15;6.18;;;2.65;;
70426;SDS011;57872;55.432;37.248;2024-01-11T20:47:16;6.80;;;1.70;;
70426;SDS011;57872;55.432;37.248;2024-01-11T20:52:18;4.23;;;2.20;;
70426;SDS011;57872;55.432;37.248;2024-01-11T20:57:20;4.43;;;1.43;;
70426;SDS011;57872;55.432;37.248;2024-01-11T21:02:21;4.13;;;2.00;;
70426;SDS011;57872;55.432;37.248;2024-01-11T21:07:22;3.20;;;1.63;;
70426;SDS011;57872;55.432;37.248;2024-01-11T21:12:24;3.80;;;2.00;;
70426;SDS011;57872;55.432;37.248;2024-01-11T21:17:31;4.23;;;1.73;;
70426;SDS011;57872;55.432;37.248;2024-01-11T21:22:33;2.87;;;1.50;;
70426;SDS011;57872;55.432;37.248;2024-01-11T21:27:34;5.83;;;1.67;;
70426;SDS011;57872;55.432;37.248;2024-01-11T21:32:35;3.93;;;1.43;;
70426;SDS011;57872;55.432;37.248;2024-01-11T21:37:37;2.73;;;1.40;;
70426;SDS011;57872;55.432;37.248;2024-01-11T21:42:40;2.80;;;1.77;;
70426;SDS011;57872;55.432;37.248;2024-01-11T21:47:41;4.40;;;1.50;;
70426;SDS011;57872;55.432;37.248;2024-01-11T21:52:42;4.43;;;1.60;;
70426;SDS011;57872;55.432;37.248;2024-01-11T21:57:44;3.07;;;1.60;;
70426;SDS011;57872;55.432;37.248;2024-01-11T22:02:45;2.73;;;1.80;;
70426;SDS011;57872;55.432;37.248;2024-01-11T22:07:49;3.00;;;1.50;;
70426;SDS011;57872;55.432;37.248;2024-01-11T22:12:50;2.90;;;1.20;;
70426;SDS011;57872;55.432;37.248;2024-01-11T22:17:53;3.60;;;1.63;;
70426;SDS011;57872;55.432;37.248;2024-01-11T22:22:54;4.50;;;1.97;;
70426;SDS011;57872;55.432;37.248;2024-01-11T22:27:58;6.93;;;1.47;;
70426;SDS011;57872;55.432;37.248;2024-01-11T22:32:59;5.43;;;1.87;;
70426;SDS011;57872;55.432;37.248;2024-01-11T22:38:00;3.67;;;1.70;;
70426;SDS011;57872;55.432;37.248;2024-01-11T22:43:01;9.63;;;2.03;;
70426;SDS011;57872;55.432;37.248;2024-01-11T22:48:03;6.67;;;2.10;;
70426;SDS011;57872;55.432;37.248;2024-01-11T22:58:26;3.97;;;1.33;;
70426;SDS011;57872;55.432;37.248;2024-01-11T23:03:29;3.35;;;1.77;;
70426;SDS011;57872;55.432;37.248;2024-01-11T23:14:48;3.77;;;1.77;;
70426;SDS011;57872;55.432;37.248;2024-01-11T23:19:49;5.07;;;2.73;;
70426;SDS011;57872;55.432;37.248;2024-01-11T23:24:54;3.70;;;1.87;;
70426;SDS011;57872;55.432;37.248;2024-01-11T23:29:57;2.83;;;1.50;;
70426;SDS011;57872;55.432;37.248;2024-01-11T23:34:58;4.53;;;1.80;;
70426;SDS011;57872;55.432;37.248;2024-01-11T23:39:59;5.17;;;2.40;;
70426;SDS011;57872;55.432;37.248;2024-01-11T23:45:04;4.87;;;1.40;;
70426;SDS011;57872;55.432;37.248;2024-01-11T23:50:05;8.00;;;1.93;;
70426;SDS011;57872;55.432;37.248;2024-01-11T23:55:07;3.93;;;1.60;;
